createdAt,value
2022-09-07T00:02:31.252Z,49.93
2022-09-07T00:07:33.999Z,50.10
2022-09-07T00:12:36.709Z,50.14
2022-09-07T00:17:41.036Z,50.11
2022-09-07T00:22:43.752Z,50.24
2022-09-07T00:27:46.580Z,50.36
2022-09-07T00:32:50.963Z,50.14
2022-09-07T00:37:53.683Z,50.31
2022-09-07T00:42:56.661Z,50.29
2022-09-07T00:48:02.327Z,50.43
2022-09-07T00:53:06.116Z,50.41
2022-09-07T00:58:09.029Z,50.55
2022-09-07T01:03:13.084Z,50.36
2022-09-07T01:08:15.779Z,50.69
2022-09-07T01:13:18.644Z,50.59
2022-09-07T01:18:27.336Z,50.61
2022-09-07T01:24:03.844Z,50.72
2022-09-07T01:29:09.250Z,50.91
2022-09-07T01:34:14.155Z,50.86
2022-09-07T01:39:16.987Z,51.00
2022-09-07T01:44:21.830Z,50.79
2022-09-07T01:49:26.185Z,50.74
2022-09-07T01:54:31.217Z,51.01
2022-09-07T01:59:36.293Z,51.04
2022-09-07T02:04:41.809Z,51.16
2022-09-07T02:09:48.437Z,51.36
2022-09-07T02:14:54.265Z,51.52
2022-09-07T02:19:59.917Z,51.38
2022-09-07T02:25:04.328Z,51.50
2022-09-07T02:30:10.307Z,51.62
2022-09-07T02:35:12.987Z,51.54
2022-09-07T02:40:15.852Z,51.59
2022-09-07T02:45:19.974Z,51.64
2022-09-07T02:50:41.607Z,51.64
2022-09-07T02:55:47.637Z,51.70
2022-09-07T03:00:54.029Z,52.08
2022-09-07T03:05:59.152Z,52.20
2022-09-07T03:11:01.909Z,52.42
2022-09-07T03:16:06.753Z,52.25
2022-09-07T03:21:09.722Z,52.49
2022-09-07T03:26:20.747Z,52.11
2022-09-07T03:31:24.897Z,51.59
2022-09-07T03:36:27.668Z,51.39
2022-09-07T03:41:30.646Z,51.57
2022-09-07T03:46:34.892Z,51.39
2022-09-07T03:51:37.679Z,51.26
2022-09-07T03:56:40.391Z,51.36
2022-09-07T04:01:44.657Z,51.33
2022-09-07T04:06:47.421Z,51.39
2022-09-07T04:11:50.183Z,51.36
2022-09-07T04:16:54.381Z,51.24
2022-09-07T04:21:57.475Z,51.32
2022-09-07T04:27:00.204Z,51.11
2022-09-07T04:32:04.516Z,51.21
2022-09-07T04:37:07.299Z,51.09
2022-09-07T04:42:10.049Z,51.08
2022-09-07T04:47:14.111Z,51.07
2022-09-07T04:52:17.450Z,51.04
2022-09-07T04:57:21.843Z,50.97
2022-09-07T05:02:26.110Z,51.11
2022-09-07T05:07:28.937Z,50.88
2022-09-07T05:12:31.663Z,51.21
2022-09-07T05:17:35.774Z,51.03
2022-09-07T05:22:41.014Z,51.07
2022-09-07T05:27:43.786Z,51.05
2022-09-07T05:32:47.809Z,50.89
2022-09-07T05:37:51.099Z,50.80
2022-09-07T05:42:53.786Z,50.93
2022-09-07T05:47:58.065Z,50.87
2022-09-07T05:53:00.806Z,50.92
2022-09-07T05:58:03.613Z,50.89
2022-09-07T06:03:07.814Z,50.59
2022-09-07T06:08:10.608Z,50.87
2022-09-07T06:13:13.419Z,51.41
2022-09-07T06:18:17.578Z,51.96
2022-09-07T06:23:20.300Z,52.53
2022-09-07T06:28:28.680Z,53.90
2022-09-07T06:33:32.952Z,53.51
2022-09-07T06:38:37.492Z,53.40
2022-09-07T06:43:44.158Z,53.78
2022-09-07T06:48:53.071Z,52.90
2022-09-07T06:59:20.231Z,52.20
2022-09-07T07:04:24.375Z,52.13
2022-09-07T07:09:27.122Z,51.63
2022-09-07T07:14:33.722Z,51.70
2022-09-07T07:19:39.096Z,51.44
2022-09-07T07:24:42.017Z,51.45
2022-09-07T07:29:45.778Z,51.23
2022-09-07T07:34:49.762Z,51.30
2022-09-07T07:50:39.366Z,51.08
2022-09-07T07:55:43.657Z,51.04
2022-09-07T08:00:55.546Z,51.12
2022-09-07T08:06:07.921Z,50.95
2022-09-07T08:11:12.177Z,50.89
2022-09-07T08:16:15.095Z,50.85
2022-09-07T08:21:19.323Z,50.96
2022-09-07T08:26:21.927Z,50.83
2022-09-07T08:31:24.669Z,50.81
2022-09-07T08:36:31.622Z,50.86
2022-09-07T08:41:46.478Z,50.51
2022-09-07T08:46:50.360Z,50.77
2022-09-07T08:51:56.173Z,50.58
2022-09-07T09:02:33.716Z,50.56
2022-09-07T09:07:43.246Z,51.81
2022-09-07T09:12:56.049Z,52.12
2022-09-07T09:18:02.239Z,52.22
2022-09-07T09:23:13.768Z,52.07
2022-09-07T09:28:16.480Z,52.02
2022-09-07T09:33:20.359Z,52.05
2022-09-07T09:38:32.229Z,52.22
2022-09-07T09:43:42.455Z,52.07
2022-09-07T09:48:50.986Z,52.32
2022-09-07T09:54:02.753Z,52.02
2022-09-07T10:04:46.122Z,51.75
2022-09-07T10:09:51.725Z,51.46
2022-09-07T10:14:56.394Z,51.34
2022-09-07T10:20:00.317Z,51.48
2022-09-07T10:25:05.544Z,51.36
2022-09-07T10:30:13.430Z,51.51
2022-09-07T10:35:18.963Z,51.42
2022-09-07T10:40:29.548Z,52.22
2022-09-07T10:45:38.140Z,51.53
2022-09-07T10:50:45.043Z,51.37
2022-09-07T10:55:54.156Z,51.55
2022-09-07T11:01:06.665Z,51.09
2022-09-07T11:06:16.813Z,51.06
2022-09-07T11:12:00.621Z,50.97
2022-09-07T11:16:50.742Z,51.07
2022-09-07T11:21:57.587Z,51.07
2022-09-07T11:27:03.188Z,50.67
2022-09-07T11:32:08.543Z,50.26
2022-09-07T11:37:17.130Z,50.26
2022-09-07T11:47:47.288Z,50.53
2022-09-07T11:52:53.541Z,50.92
2022-09-07T11:58:10.456Z,50.69
2022-09-07T12:03:36.932Z,50.67
2022-09-07T12:08:48.624Z,50.98
2022-09-07T12:14:04.949Z,50.70
2022-09-07T12:19:18.896Z,50.77
2022-09-07T12:24:38.523Z,51.46
2022-09-07T12:29:45.690Z,51.24
2022-09-07T12:34:53.202Z,51.04
2022-09-07T12:40:29.415Z,51.24
2022-09-07T12:45:50.463Z,51.43
2022-09-07T12:50:56.495Z,51.51
2022-09-07T12:56:22.330Z,51.42
2022-09-07T13:01:36.338Z,50.41
2022-09-07T13:07:11.495Z,50.61
2022-09-07T13:17:57.278Z,50.56
2022-09-07T13:23:24.350Z,50.79
2022-09-07T13:28:32.844Z,50.67
2022-09-07T13:33:48.160Z,50.53
2022-09-07T13:38:51.600Z,51.28
2022-09-07T13:43:58.271Z,51.18
2022-09-07T13:49:06.062Z,51.41
2022-09-07T13:54:11.496Z,51.97
2022-09-07T13:59:19.361Z,52.23
2022-09-07T14:04:24.826Z,52.09
2022-09-07T14:09:27.501Z,52.17
2022-09-07T14:14:32.729Z,52.30
2022-09-07T14:19:39.319Z,52.47
2022-09-07T14:24:43.059Z,52.16
2022-09-07T14:29:45.917Z,51.62
2022-09-07T14:34:49.894Z,52.05
2022-09-07T14:39:52.804Z,52.13
2022-09-07T14:45:18.269Z,52.00
2022-09-07T14:50:23.836Z,51.95
2022-09-07T14:55:30.982Z,52.09
2022-09-07T15:00:34.395Z,51.84
2022-09-07T15:05:48.474Z,50.13
2022-09-07T15:16:22.300Z,50.75
2022-09-07T15:21:27.350Z,51.18
2022-09-07T15:32:02.285Z,51.68
2022-09-07T15:47:54.201Z,52.05
2022-09-07T15:53:00.854Z,51.84
2022-09-07T15:58:11.400Z,53.37
2022-09-07T16:03:14.811Z,52.65
2022-09-07T16:08:26.151Z,53.07
2022-09-07T16:13:31.484Z,53.56
2022-09-07T16:18:34.487Z,53.70
2022-09-07T16:23:39.052Z,53.91
2022-09-07T16:28:42.895Z,53.67
2022-09-07T16:33:45.764Z,53.73
2022-09-07T16:38:50.013Z,53.45
2022-09-07T16:43:52.635Z,52.78
2022-09-07T16:48:55.468Z,52.96
2022-09-07T16:53:59.812Z,53.12
2022-09-07T16:59:03.251Z,53.00
2022-09-07T17:04:10.671Z,52.75
2022-09-07T17:09:15.868Z,53.15
2022-09-07T17:14:18.750Z,53.59
2022-09-07T17:19:30.107Z,53.33
2022-09-07T17:24:34.465Z,53.69
2022-09-07T17:29:37.681Z,53.87
2022-09-07T17:34:40.411Z,53.87
2022-09-07T17:39:44.768Z,53.92
2022-09-07T17:44:52.886Z,53.70
2022-09-07T17:49:55.706Z,53.69
2022-09-07T17:55:01.322Z,53.84
2022-09-07T18:00:14.557Z,53.24
2022-09-07T18:05:18.351Z,53.32
2022-09-07T18:10:22.442Z,53.43
2022-09-07T18:15:25.416Z,53.38
2022-09-07T18:20:27.990Z,53.54
2022-09-07T18:25:32.013Z,53.47
2022-09-07T18:30:36.580Z,53.76
2022-09-07T18:35:39.158Z,53.73
2022-09-07T18:40:43.138Z,53.66
2022-09-07T18:45:45.863Z,54.19
2022-09-07T18:50:54.077Z,53.49
2022-09-07T18:56:03.742Z,53.26
2022-09-07T19:01:07.554Z,53.06
2022-09-07T19:06:12.826Z,52.95
2022-09-07T19:11:17.650Z,53.47
2022-09-07T19:16:20.386Z,52.90
2022-09-07T19:21:24.509Z,52.95
2022-09-07T19:26:29.330Z,53.02
2022-09-07T19:31:32.188Z,51.84
2022-09-07T19:36:34.945Z,50.54
2022-09-07T19:41:42.394Z,51.48
2022-09-07T19:46:45.317Z,52.25
2022-09-07T19:51:49.374Z,52.60
2022-09-07T19:56:53.346Z,52.87
2022-09-07T20:01:56.114Z,52.88
2022-09-07T20:06:58.677Z,52.47
2022-09-07T20:12:03.760Z,52.52
2022-09-07T20:17:06.390Z,51.94
2022-09-07T20:22:08.964Z,52.10
2022-09-07T20:27:12.998Z,52.10
2022-09-07T20:32:16.721Z,51.31
2022-09-07T20:37:19.335Z,51.63
2022-09-07T20:42:23.245Z,51.54
2022-09-07T20:47:26.110Z,51.24
2022-09-07T20:52:28.749Z,51.23
2022-09-07T20:57:32.765Z,51.25
2022-09-07T21:02:35.817Z,51.00
2022-09-07T21:07:38.896Z,51.05
2022-09-07T21:12:42.995Z,50.62
2022-09-07T21:17:45.596Z,50.98
2022-09-07T21:22:49.371Z,51.25
2022-09-07T21:27:53.387Z,50.64
2022-09-07T21:32:58.826Z,51.04
2022-09-07T21:38:05.050Z,50.55
2022-09-07T21:43:08.980Z,50.76
2022-09-07T21:48:11.581Z,50.58
2022-09-07T21:53:14.283Z,50.57
2022-09-07T21:58:18.262Z,50.46
2022-09-07T22:03:20.829Z,50.49
2022-09-07T22:08:23.433Z,50.43
2022-09-07T22:13:28.680Z,50.49
2022-09-07T22:18:31.571Z,50.58
2022-09-07T22:23:34.547Z,50.32
2022-09-07T22:28:38.809Z,50.39
2022-09-07T22:33:41.641Z,50.35
2022-09-07T22:38:45.287Z,50.74
2022-09-07T22:43:50.941Z,50.01
2022-09-07T22:48:54.333Z,50.29
2022-09-07T22:53:56.939Z,50.44
2022-09-07T22:59:01.824Z,50.48
2022-09-07T23:04:04.792Z,50.57
2022-09-07T23:09:08.329Z,50.27
2022-09-07T23:14:14.952Z,50.02
2022-09-07T23:19:18.137Z,50.42
2022-09-07T23:24:20.963Z,49.74
2022-09-07T23:29:24.930Z,49.31
2022-09-07T23:34:27.559Z,49.74
2022-09-07T23:39:30.173Z,50.01
2022-09-07T23:44:34.129Z,50.16
2022-09-07T23:49:36.710Z,50.05
2022-09-07T23:54:39.724Z,50.18
2022-09-07T23:59:43.625Z,50.30
